createdAt,value
2022-12-20T00:00:01.561Z,60.45
2022-12-20T00:02:47.291Z,59.97
2022-12-20T00:05:39.983Z,60.47
2022-12-20T00:08:25.885Z,61.38
2022-12-20T00:11:12.492Z,61.17
2022-12-20T00:13:58.855Z,60.72
2022-12-20T00:16:44.752Z,61.80
2022-12-20T00:19:30.386Z,63.05
2022-12-20T00:22:16.031Z,60.72
2022-12-20T00:25:01.541Z,60.13
2022-12-20T00:27:48.223Z,63.45
2022-12-20T00:30:35.573Z,61.35
2022-12-20T00:33:21.611Z,60.55
2022-12-20T00:36:08.295Z,60.78
2022-12-20T00:38:55.189Z,60.03
2022-12-20T00:41:40.951Z,61.97
2022-12-20T00:44:28.487Z,61.60
2022-12-20T00:47:14.916Z,60.78
2022-12-20T00:50:00.244Z,59.38
2022-12-20T00:52:45.746Z,62.28
2022-12-20T00:55:31.290Z,62.08
2022-12-20T00:58:16.967Z,60.38
2022-12-20T01:01:03.717Z,63.78
2022-12-20T01:03:50.325Z,61.92
2022-12-20T01:06:37.322Z,61.38
2022-12-20T01:09:23.227Z,63.13
2022-12-20T01:12:09.156Z,61.28
2022-12-20T01:14:55.512Z,62.70
2022-12-20T01:17:41.925Z,63.00
2022-12-20T01:20:27.519Z,64.38
2022-12-20T01:23:13.469Z,65.97
2022-12-20T01:26:01.312Z,66.70
2022-12-20T01:28:48.313Z,66.28
2022-12-20T01:31:34.125Z,66.88
2022-12-20T01:34:20.132Z,64.63
2022-12-20T01:37:05.674Z,66.70
2022-12-20T01:39:51.492Z,65.90
2022-12-20T01:42:37.652Z,66.40
2022-12-20T01:45:29.767Z,64.90
2022-12-20T01:48:21.644Z,66.40
2022-12-20T01:51:07.649Z,64.68
2022-12-20T01:54:01.455Z,63.10
2022-12-20T01:56:54.317Z,64.75
2022-12-20T01:59:43.536Z,67.25
2022-12-20T02:02:30.017Z,69.07
2022-12-20T02:05:19.552Z,68.82
2022-12-20T02:08:07.972Z,63.60
2022-12-20T02:11:14.870Z,64.65
2022-12-20T02:14:38.601Z,67.18
2022-12-20T02:17:36.157Z,66.32
2022-12-20T02:20:46.910Z,65.50
2022-12-20T02:24:03.335Z,66.15
2022-12-20T02:27:31.009Z,67.70
2022-12-20T02:30:28.809Z,65.90
2022-12-20T02:33:14.854Z,66.45
2022-12-20T02:36:00.423Z,67.78
2022-12-20T02:38:46.258Z,67.40
2022-12-20T02:41:52.345Z,67.07
2022-12-20T02:45:18.131Z,65.50
2022-12-20T02:48:10.996Z,66.45
2022-12-20T02:50:59.080Z,65.03
2022-12-20T02:53:45.255Z,64.72
2022-12-20T02:56:41.807Z,65.85
2022-12-20T03:00:10.595Z,61.63
2022-12-20T03:03:15.668Z,63.85
2022-12-20T03:06:02.185Z,62.50
2022-12-20T03:08:48.707Z,60.88
2022-12-20T03:11:34.441Z,65.25
2022-12-20T03:14:21.355Z,64.07
2022-12-20T03:17:09.023Z,64.53
2022-12-20T03:19:57.052Z,63.80
2022-12-20T03:22:42.697Z,61.90
2022-12-20T03:25:28.344Z,66.07
2022-12-20T03:28:15.088Z,64.68
2022-12-20T03:31:00.973Z,64.68
2022-12-20T03:33:47.877Z,63.03
2022-12-20T03:36:33.995Z,64.30
2022-12-20T03:39:22.826Z,63.40
2022-12-20T03:42:11.393Z,64.35
2022-12-20T03:44:57.301Z,64.00
2022-12-20T03:47:45.900Z,63.78
2022-12-20T03:50:32.162Z,63.05
2022-12-20T03:53:20.046Z,66.68
2022-12-20T03:56:06.028Z,63.88
2022-12-20T03:58:51.607Z,62.22
2022-12-20T04:01:38.703Z,62.35
2022-12-20T04:04:25.499Z,63.30
2022-12-20T04:07:11.090Z,63.20
2022-12-20T04:09:58.632Z,63.65
2022-12-20T04:12:44.219Z,59.25
2022-12-20T04:15:32.313Z,62.65
2022-12-20T04:18:19.974Z,62.28
2022-12-20T04:21:07.291Z,62.70
2022-12-20T04:23:56.147Z,62.75
2022-12-20T04:26:47.599Z,63.47
2022-12-20T04:29:33.974Z,64.28
2022-12-20T04:32:20.540Z,62.97
2022-12-20T04:35:06.741Z,64.10
2022-12-20T04:37:58.005Z,63.85
2022-12-20T04:40:44.223Z,64.20
2022-12-20T04:43:30.829Z,62.22
2022-12-20T04:46:19.390Z,63.53
2022-12-20T04:49:05.315Z,61.70
2022-12-20T04:51:53.246Z,62.20
2022-12-20T04:54:40.023Z,62.58
2022-12-20T04:57:33.341Z,62.70
2022-12-20T05:00:20.329Z,62.65
2022-12-20T05:03:13.194Z,64.80
2022-12-20T05:05:59.518Z,64.43
2022-12-20T05:08:45.702Z,61.38
2022-12-20T05:11:31.311Z,60.75
2022-12-20T05:14:16.876Z,61.35
2022-12-20T05:17:02.419Z,62.55
2022-12-20T05:19:48.429Z,65.15
2022-12-20T05:22:53.637Z,61.92
2022-12-20T05:26:01.359Z,63.38
2022-12-20T05:28:46.980Z,62.65
2022-12-20T05:31:33.375Z,61.10
2022-12-20T05:34:21.003Z,61.75
2022-12-20T05:37:11.662Z,61.55
2022-12-20T05:39:59.605Z,58.42
2022-12-20T05:42:45.484Z,61.05
2022-12-20T05:45:32.584Z,62.35
2022-12-20T05:48:23.080Z,62.47
2022-12-20T05:51:09.479Z,60.25
2022-12-20T05:54:09.090Z,57.15
2022-12-20T05:57:07.757Z,62.15
2022-12-20T05:59:56.491Z,61.97
2022-12-20T06:02:43.601Z,61.30
2022-12-20T06:05:30.016Z,62.42
2022-12-20T06:08:19.352Z,60.60
2022-12-20T06:11:05.269Z,61.88
2022-12-20T06:13:58.551Z,63.60
2022-12-20T06:16:45.056Z,60.58
2022-12-20T06:19:31.742Z,59.95
2022-12-20T06:22:18.883Z,61.83
2022-12-20T06:25:09.523Z,62.15
2022-12-20T06:27:58.439Z,64.38
2022-12-20T06:30:44.315Z,61.72
2022-12-20T06:33:43.554Z,60.88
2022-12-20T06:36:30.500Z,57.63
2022-12-20T06:39:16.580Z,60.13
2022-12-20T06:42:10.823Z,57.05
2022-12-20T06:44:58.382Z,57.63
2022-12-20T06:47:45.275Z,56.03
2022-12-20T06:50:30.832Z,57.13
2022-12-20T06:53:16.647Z,57.63
2022-12-20T06:56:05.040Z,56.38
2022-12-20T06:58:52.000Z,61.03
2022-12-20T07:01:37.646Z,59.50
2022-12-20T07:04:23.372Z,58.08
2022-12-20T07:07:09.129Z,60.92
2022-12-20T07:09:55.037Z,61.55
2022-12-20T07:12:47.680Z,59.80
2022-12-20T07:15:35.150Z,60.95
2022-12-20T07:18:20.983Z,62.60
2022-12-20T07:21:06.633Z,63.35
2022-12-20T07:23:52.144Z,60.22
2022-12-20T07:26:37.766Z,63.58
2022-12-20T07:29:23.331Z,61.45
2022-12-20T07:32:09.018Z,63.05
2022-12-20T07:34:54.639Z,61.33
2022-12-20T07:37:40.425Z,61.83
2022-12-20T07:41:01.340Z,62.65
2022-12-20T07:43:48.849Z,62.08
2022-12-20T07:46:34.839Z,60.50
2022-12-20T07:49:20.736Z,59.80
2022-12-20T07:52:08.450Z,59.58
2022-12-20T07:55:01.408Z,60.90
2022-12-20T07:57:54.703Z,61.65
2022-12-20T08:00:40.555Z,60.05
2022-12-20T08:03:37.146Z,58.45
2022-12-20T08:06:22.993Z,59.22
2022-12-20T08:09:12.916Z,60.45
2022-12-20T08:11:59.338Z,61.33
2022-12-20T08:14:45.456Z,60.97
2022-12-20T08:17:31.175Z,62.15
2022-12-20T08:20:17.027Z,64.00
2022-12-20T08:23:04.712Z,62.53
2022-12-20T08:25:50.688Z,62.60
2022-12-20T08:28:36.508Z,63.60
2022-12-20T08:31:24.356Z,62.63
2022-12-20T08:34:11.106Z,61.72
2022-12-20T08:36:56.996Z,61.05
2022-12-20T08:39:42.755Z,63.88
2022-12-20T08:42:28.660Z,62.42
2022-12-20T08:45:15.320Z,62.25
2022-12-20T08:48:01.028Z,63.47
2022-12-20T08:50:46.890Z,62.60
2022-12-20T08:53:33.331Z,67.03
2022-12-20T08:56:20.168Z,63.72
2022-12-20T08:59:06.983Z,63.53
2022-12-20T09:01:54.704Z,66.25
2022-12-20T09:04:40.662Z,62.80
2022-12-20T09:07:27.129Z,62.88
2022-12-20T09:10:13.213Z,64.50
2022-12-20T09:12:59.687Z,63.05
2022-12-20T09:15:46.105Z,66.13
2022-12-20T09:18:32.461Z,66.95
2022-12-20T09:21:19.460Z,64.03
2022-12-20T09:24:06.477Z,66.03
2022-12-20T09:26:52.501Z,64.93
2022-12-20T09:29:38.093Z,64.82
2022-12-20T09:32:23.581Z,62.70
2022-12-20T09:35:09.610Z,65.88
2022-12-20T09:37:55.487Z,66.57
2022-12-20T09:40:47.049Z,63.95
2022-12-20T09:43:34.001Z,62.30
2022-12-20T09:46:19.952Z,65.07
2022-12-20T09:49:05.847Z,64.80
2022-12-20T09:52:18.803Z,64.82
2022-12-20T09:55:29.309Z,64.60
2022-12-20T09:58:45.153Z,63.75
2022-12-20T10:01:39.744Z,61.15
2022-12-20T10:04:28.895Z,63.45
2022-12-20T10:07:49.079Z,62.45
2022-12-20T10:10:44.089Z,63.92
2022-12-20T10:13:54.174Z,65.47
2022-12-20T10:16:46.273Z,64.97
2022-12-20T10:20:11.530Z,65.32
2022-12-20T10:23:08.181Z,63.42
2022-12-20T10:25:56.489Z,66.78
2022-12-20T10:28:42.565Z,66.43
2022-12-20T10:31:28.726Z,65.68
2022-12-20T10:34:15.556Z,66.80
2022-12-20T10:37:16.167Z,64.50
2022-12-20T10:40:07.355Z,68.03
2022-12-20T10:42:53.492Z,66.70
2022-12-20T10:45:41.990Z,65.85
2022-12-20T10:48:36.364Z,67.07
2022-12-20T10:51:22.748Z,63.97
2022-12-20T10:54:28.528Z,67.57
2022-12-20T10:57:26.634Z,66.70
2022-12-20T11:00:29.713Z,64.55
2022-12-20T11:03:21.837Z,65.40
2022-12-20T11:06:17.139Z,66.28
2022-12-20T11:09:22.506Z,65.00
2022-12-20T11:12:15.929Z,64.47
2022-12-20T11:15:34.307Z,65.53
2022-12-20T11:18:26.583Z,67.25
2022-12-20T11:21:32.780Z,67.90
2022-12-20T11:24:45.701Z,68.78
2022-12-20T11:27:48.933Z,66.63
2022-12-20T11:30:49.771Z,65.93
2022-12-20T11:33:51.011Z,70.38
2022-12-20T11:36:42.296Z,69.97
2022-12-20T11:39:53.599Z,67.32
2022-12-20T11:43:16.983Z,68.20
2022-12-20T11:46:26.531Z,67.30
2022-12-20T11:49:41.884Z,67.68
2022-12-20T11:52:50.068Z,64.75
2022-12-20T11:55:39.768Z,68.20
2022-12-20T11:58:36.276Z,71.18
2022-12-20T12:01:29.927Z,66.18
2022-12-20T12:04:21.865Z,68.25
2022-12-20T12:07:17.179Z,70.00
2022-12-20T12:10:33.452Z,67.93
2022-12-20T12:13:26.318Z,67.05
2022-12-20T12:16:14.747Z,67.90
2022-12-20T12:19:01.482Z,69.68
2022-12-20T12:21:55.677Z,69.15
2022-12-20T12:24:46.803Z,65.30
2022-12-20T12:27:33.239Z,64.80
2022-12-20T12:30:19.459Z,68.85
2022-12-20T12:33:11.809Z,65.65
2022-12-20T12:36:09.584Z,61.03
2022-12-20T12:39:33.995Z,60.90
2022-12-20T12:42:47.556Z,62.28
2022-12-20T12:45:47.616Z,60.45
2022-12-20T12:48:47.514Z,59.65
2022-12-20T12:51:39.871Z,56.63
2022-12-20T12:54:45.738Z,56.70
2022-12-20T12:57:55.588Z,52.40
2022-12-20T13:01:01.003Z,54.85
2022-12-20T13:04:11.705Z,54.33
2022-12-20T13:07:01.449Z,49.90
2022-12-20T13:09:46.891Z,48.70
2022-12-20T13:12:38.735Z,49.38
2022-12-20T13:15:24.221Z,47.08
2022-12-20T13:18:10.772Z,44.90
2022-12-20T13:21:36.243Z,45.58
2022-12-20T13:24:48.353Z,47.05
2022-12-20T13:27:42.034Z,46.03
2022-12-20T13:30:28.863Z,47.88
2022-12-20T13:33:45.454Z,47.72
2022-12-20T13:36:37.234Z,49.38
2022-12-20T13:39:22.792Z,49.35
2022-12-20T13:42:22.649Z,51.22
2022-12-20T13:45:13.437Z,47.22
2022-12-20T13:48:09.348Z,42.15
2022-12-20T13:50:58.147Z,41.92
2022-12-20T13:53:57.471Z,39.92
2022-12-20T13:56:47.319Z,38.63
2022-12-20T13:59:33.762Z,37.90
2022-12-20T14:02:30.956Z,39.97
2022-12-20T14:05:23.442Z,39.33
2022-12-20T14:08:21.854Z,40.67
2022-12-20T14:11:16.944Z,40.53
2022-12-20T14:14:04.499Z,38.15
2022-12-20T14:16:50.388Z,38.15
2022-12-20T14:19:35.862Z,38.45
2022-12-20T14:22:21.502Z,38.92
2022-12-20T14:25:09.227Z,37.90
2022-12-20T14:27:55.891Z,40.50
2022-12-20T14:30:43.951Z,40.88
2022-12-20T14:33:37.339Z,43.95
2022-12-20T14:36:23.286Z,43.20
2022-12-20T14:39:29.623Z,42.38
2022-12-20T14:42:20.572Z,46.08
2022-12-20T14:45:27.712Z,44.70
2022-12-20T14:48:17.069Z,45.15
2022-12-20T14:51:05.712Z,43.95
2022-12-20T14:53:51.896Z,41.42
2022-12-20T14:56:37.397Z,46.65
2022-12-20T14:59:26.551Z,48.00
2022-12-20T15:02:42.910Z,46.53
2022-12-20T15:05:34.927Z,47.67
2022-12-20T15:08:33.927Z,49.45
2022-12-20T15:11:23.134Z,49.70
2022-12-20T15:14:37.769Z,49.55
2022-12-20T15:17:23.513Z,50.55
2022-12-20T15:20:13.215Z,52.28
2022-12-20T15:22:59.452Z,50.22
2022-12-20T15:25:46.043Z,51.25
2022-12-20T15:28:32.639Z,55.35
2022-12-20T15:31:20.571Z,52.13
2022-12-20T15:34:29.131Z,46.65
2022-12-20T15:37:18.843Z,45.35
2022-12-20T15:40:06.462Z,45.60
2022-12-20T15:42:52.487Z,46.08
2022-12-20T15:45:38.367Z,46.00
2022-12-20T15:48:24.928Z,46.78
2022-12-20T15:51:27.985Z,49.70
2022-12-20T15:54:27.385Z,47.78
2022-12-20T15:57:15.054Z,47.53
2022-12-20T16:00:02.730Z,48.47
2022-12-20T16:02:59.397Z,46.17
2022-12-20T16:05:44.930Z,46.33
2022-12-20T16:08:30.843Z,48.17
2022-12-20T16:11:28.442Z,51.00
2022-12-20T16:14:21.155Z,48.63
2022-12-20T16:17:08.138Z,48.90
2022-12-20T16:19:55.380Z,49.78
2022-12-20T16:22:41.200Z,49.08
2022-12-20T16:25:31.110Z,50.78
2022-12-20T16:28:17.867Z,49.67
2022-12-20T16:31:11.444Z,50.40
2022-12-20T16:33:58.454Z,49.83
2022-12-20T16:36:45.168Z,49.60
2022-12-20T16:39:31.111Z,49.38
2022-12-20T16:42:22.002Z,47.85
2022-12-20T16:45:18.629Z,48.95
2022-12-20T16:48:04.371Z,48.28
2022-12-20T16:50:50.022Z,47.22
2022-12-20T16:54:02.329Z,47.67
2022-12-20T16:56:43.931Z,46.78
2022-12-20T16:59:29.691Z,45.90
2022-12-20T17:02:27.145Z,47.40
2022-12-20T17:05:25.128Z,45.78
2022-12-20T17:11:29.055Z,42.00
2022-12-20T17:14:14.925Z,43.95
2022-12-20T17:17:03.087Z,43.38
2022-12-20T17:19:48.633Z,42.42
2022-12-20T17:22:34.174Z,43.00
2022-12-20T17:25:28.950Z,42.88
2022-12-20T17:28:14.806Z,41.85
2022-12-20T17:31:07.546Z,42.67
2022-12-20T17:33:54.099Z,39.85
2022-12-20T17:36:39.320Z,38.92
2022-12-20T17:39:26.019Z,39.25
2022-12-20T17:42:15.337Z,38.90
2022-12-20T17:45:01.061Z,37.67
2022-12-20T17:47:46.660Z,36.38
2022-12-20T17:50:32.179Z,39.10
2022-12-20T17:53:17.813Z,37.72
2022-12-20T17:56:03.513Z,39.42
2022-12-20T17:58:50.120Z,37.67
2022-12-20T18:01:36.166Z,40.28
2022-12-20T18:04:22.133Z,38.38
2022-12-20T18:07:09.033Z,37.78
2022-12-20T18:09:54.555Z,37.58
2022-12-20T18:12:40.455Z,37.95
2022-12-20T18:15:26.388Z,36.42
2022-12-20T18:18:11.995Z,36.50
2022-12-20T18:21:09.333Z,39.00
2022-12-20T18:23:55.233Z,35.60
2022-12-20T18:26:41.077Z,35.92
2022-12-20T18:29:26.942Z,35.03
2022-12-20T18:32:12.716Z,33.13
2022-12-20T18:34:58.623Z,32.67
2022-12-20T18:37:44.271Z,30.77
2022-12-20T18:40:29.754Z,32.28
2022-12-20T18:43:15.368Z,29.90
2022-12-20T18:46:12.123Z,28.45
2022-12-20T18:48:59.499Z,29.42
2022-12-20T18:51:45.224Z,28.67
2022-12-20T18:54:30.807Z,28.92
2022-12-20T18:57:16.489Z,30.17
2022-12-20T19:00:03.351Z,30.55
2022-12-20T19:02:49.497Z,30.23
2022-12-20T19:05:35.385Z,29.50
2022-12-20T19:08:21.856Z,33.05
2022-12-20T19:11:09.575Z,32.25
2022-12-20T19:13:56.083Z,34.65
2022-12-20T19:16:41.938Z,34.33
2022-12-20T19:19:27.912Z,33.47
2022-12-20T19:22:13.379Z,33.58
2022-12-20T19:24:59.186Z,32.75
2022-12-20T19:27:44.707Z,34.55
2022-12-20T19:30:30.374Z,34.95
2022-12-20T19:33:15.979Z,34.75
2022-12-20T19:36:08.735Z,34.75
2022-12-20T19:38:57.163Z,36.53
2022-12-20T19:41:45.519Z,39.97
2022-12-20T19:44:36.668Z,34.20
2022-12-20T19:47:22.566Z,33.47
2022-12-20T19:50:09.149Z,34.13
2022-12-20T19:52:54.736Z,32.10
2022-12-20T19:55:40.354Z,34.40
2022-12-20T19:58:25.838Z,32.90
2022-12-20T20:01:12.427Z,32.47
2022-12-20T20:04:00.394Z,32.28
2022-12-20T20:06:46.546Z,32.97
2022-12-20T20:09:32.135Z,31.67
2022-12-20T20:12:17.724Z,32.75
2022-12-20T20:15:03.390Z,29.45
2022-12-20T20:17:49.379Z,28.10
2022-12-20T20:20:35.882Z,28.23
2022-12-20T20:23:24.948Z,27.08
2022-12-20T20:26:14.663Z,28.55
2022-12-20T20:29:02.442Z,27.23
2022-12-20T20:31:49.151Z,29.13
2022-12-20T20:34:34.409Z,28.10
2022-12-20T20:37:20.177Z,28.20
2022-12-20T20:40:12.083Z,27.60
2022-12-20T20:42:57.568Z,26.48
2022-12-20T20:45:43.248Z,26.40
2022-12-20T20:48:29.044Z,27.40
2022-12-20T20:51:15.675Z,25.33
2022-12-20T20:54:01.401Z,23.95
2022-12-20T20:56:47.149Z,27.25
2022-12-20T20:59:32.798Z,26.15
2022-12-20T21:02:20.947Z,25.98
2022-12-20T21:05:58.697Z,24.95
2022-12-20T21:08:12.130Z,22.55
2022-12-20T21:10:57.901Z,23.55
2022-12-20T21:13:43.904Z,24.23
2022-12-20T21:16:30.927Z,23.83
2022-12-20T21:19:17.936Z,26.33
2022-12-20T21:22:03.850Z,29.52
2022-12-20T21:24:49.421Z,31.83
2022-12-20T21:27:35.286Z,30.80
2022-12-20T21:30:21.102Z,31.77
2022-12-20T21:33:06.562Z,31.00
2022-12-20T21:36:07.054Z,32.28
2022-12-20T21:38:55.590Z,34.05
2022-12-20T21:41:41.446Z,34.60
2022-12-20T21:44:26.872Z,32.50
2022-12-20T21:47:12.387Z,33.92
2022-12-20T21:49:57.939Z,34.38
2022-12-20T21:52:43.374Z,32.75
2022-12-20T21:55:29.075Z,34.40
2022-12-20T21:58:14.765Z,35.53
2022-12-20T22:01:02.586Z,36.30
2022-12-20T22:03:53.615Z,33.95
2022-12-20T22:06:39.749Z,36.28
2022-12-20T22:09:25.383Z,35.65
2022-12-20T22:12:10.933Z,34.03
2022-12-20T22:14:56.476Z,35.63
2022-12-20T22:17:42.005Z,32.13
2022-12-20T22:20:27.685Z,30.33
2022-12-20T22:23:13.692Z,28.25
2022-12-20T22:26:06.831Z,27.05
2022-12-20T22:28:58.775Z,27.30
2022-12-20T22:31:44.674Z,24.77
2022-12-20T22:34:30.296Z,24.52
2022-12-20T22:37:16.224Z,24.35
2022-12-20T22:40:01.903Z,24.35
2022-12-20T22:42:47.612Z,24.35
2022-12-20T22:45:33.404Z,24.38
2022-12-20T22:48:19.148Z,25.60
2022-12-20T22:51:07.679Z,27.10
2022-12-20T22:53:53.366Z,28.48
2022-12-20T22:56:39.324Z,29.83
2022-12-20T22:59:24.808Z,30.60
2022-12-20T23:02:10.690Z,32.50
2022-12-20T23:04:57.144Z,32.50
2022-12-20T23:07:42.743Z,32.72
2022-12-20T23:10:48.452Z,32.88
2022-12-20T23:13:52.646Z,33.10
2022-12-20T23:16:38.404Z,31.98
2022-12-20T23:19:24.413Z,34.00
2022-12-20T23:22:29.192Z,33.83
2022-12-20T23:25:17.433Z,33.83
2022-12-20T23:28:03.146Z,35.10
2022-12-20T23:30:48.700Z,35.50
2022-12-20T23:33:34.890Z,35.35
2022-12-20T23:36:20.361Z,36.42
2022-12-20T23:39:06.259Z,40.13
2022-12-20T23:41:52.008Z,40.13
2022-12-20T23:44:37.508Z,40.38
2022-12-20T23:47:23.248Z,40.33
2022-12-20T23:50:09.194Z,42.20
2022-12-20T23:52:54.828Z,42.25
2022-12-20T23:55:40.334Z,41.63
2022-12-20T23:58:26.345Z,42.53
